createdAt,value
2022-09-28T00:00:35.085Z,70.81
2022-09-28T00:03:01.678Z,70.58
2022-09-28T00:05:28.278Z,70.70
2022-09-28T00:07:55.893Z,70.64
2022-09-28T00:10:23.132Z,71.37
2022-09-28T00:12:52.101Z,70.94
2022-09-28T00:15:18.737Z,70.59
2022-09-28T00:17:45.285Z,70.99
2022-09-28T00:20:12.493Z,71.84
2022-09-28T00:22:39.615Z,71.03
2022-09-28T00:25:07.024Z,70.56
2022-09-28T00:27:33.528Z,71.52
2022-09-28T00:30:00.237Z,70.93
2022-09-28T00:32:27.991Z,71.79
2022-09-28T00:34:55.103Z,71.66
2022-09-28T00:37:21.658Z,71.95
2022-09-28T00:39:48.870Z,71.26
2022-09-28T00:42:19.434Z,71.77
2022-09-28T00:50:26.772Z,72.59
2022-09-28T00:55:54.865Z,72.36
2022-09-28T00:58:27.623Z,72.05
2022-09-28T01:00:56.816Z,72.70
2022-09-28T01:03:24.214Z,72.17
2022-09-28T01:05:53.019Z,72.02
2022-09-28T01:08:21.785Z,72.13
2022-09-28T01:10:49.271Z,72.04
2022-09-28T01:13:17.679Z,71.74
2022-09-28T01:15:56.681Z,72.72
2022-09-28T01:18:35.668Z,72.90
2022-09-28T01:24:00.294Z,73.22
2022-09-28T01:32:03.556Z,72.82
2022-09-28T01:34:39.770Z,73.21
2022-09-28T01:37:09.989Z,73.77
2022-09-28T01:39:39.557Z,74.37
2022-09-28T01:42:14.774Z,72.52
2022-09-28T01:44:45.909Z,72.76
2022-09-28T01:47:15.541Z,72.56
2022-09-28T01:49:47.628Z,72.78
2022-09-28T01:52:21.734Z,73.88
2022-09-28T02:00:10.603Z,73.26
2022-09-28T02:02:51.072Z,73.04
2022-09-28T02:05:24.892Z,73.09
2022-09-28T02:08:00.278Z,74.23
2022-09-28T02:10:35.432Z,73.42
2022-09-28T02:13:09.200Z,74.02
2022-09-28T02:15:50.760Z,72.85
2022-09-28T02:18:17.495Z,74.42
2022-09-28T02:21:11.066Z,72.89
2022-09-28T02:23:41.513Z,73.66
2022-09-28T02:26:14.078Z,73.22
2022-09-28T02:28:40.789Z,73.23
2022-09-28T02:31:07.449Z,72.90
2022-09-28T02:33:38.569Z,73.90
2022-09-28T02:36:05.510Z,72.73
2022-09-28T02:38:32.593Z,73.73
2022-09-28T02:47:05.320Z,73.87
2022-09-28T02:55:19.032Z,73.11
2022-09-28T03:00:32.671Z,72.85
2022-09-28T03:11:13.963Z,73.97
2022-09-28T03:13:40.947Z,73.84
2022-09-28T03:18:46.686Z,74.18
2022-09-28T03:21:14.470Z,74.46
2022-09-28T03:23:42.058Z,74.17
2022-09-28T03:26:11.337Z,74.51
2022-09-28T03:28:38.101Z,73.82
2022-09-28T03:31:04.991Z,73.45
2022-09-28T03:33:31.561Z,74.05
2022-09-28T03:35:58.098Z,73.46
2022-09-28T03:38:24.699Z,74.48
2022-09-28T03:40:54.686Z,73.67
2022-09-28T03:43:22.129Z,73.69
2022-09-28T03:45:54.085Z,73.98
2022-09-28T03:48:31.353Z,73.62
2022-09-28T03:51:01.134Z,74.47
2022-09-28T03:53:29.652Z,73.90
2022-09-28T03:56:01.725Z,73.97
2022-09-28T03:58:28.572Z,74.68
2022-09-28T04:00:55.222Z,73.62
2022-09-28T04:03:21.869Z,75.04
2022-09-28T04:05:51.452Z,73.90
2022-09-28T04:08:18.625Z,73.98
2022-09-28T04:10:45.786Z,74.74
2022-09-28T04:13:12.366Z,73.38
2022-09-28T04:15:38.864Z,74.27
2022-09-28T04:18:10.825Z,73.86
2022-09-28T04:20:37.846Z,74.51
2022-09-28T04:23:04.385Z,74.34
2022-09-28T04:25:30.925Z,74.70
2022-09-28T04:28:17.383Z,74.83
2022-09-28T04:30:46.111Z,74.03
2022-09-28T04:33:12.641Z,74.71
2022-09-28T04:35:39.163Z,74.75
2022-09-28T04:38:05.943Z,74.59
2022-09-28T04:40:32.568Z,74.24
2022-09-28T04:42:59.212Z,75.43
2022-09-28T04:45:27.017Z,75.74
2022-09-28T04:47:53.947Z,75.33
2022-09-28T04:50:20.618Z,75.75
2022-09-28T04:52:47.213Z,74.67
2022-09-28T04:55:14.444Z,75.35
2022-09-28T04:57:41.186Z,74.32
2022-09-28T05:00:09.074Z,75.61
2022-09-28T05:02:35.791Z,75.90
2022-09-28T05:05:02.369Z,75.04
2022-09-28T05:07:28.990Z,75.06
2022-09-28T05:09:55.950Z,75.78
2022-09-28T05:12:22.597Z,75.59
2022-09-28T05:14:49.146Z,76.19
2022-09-28T05:17:15.689Z,74.95
2022-09-28T05:19:42.238Z,75.13
2022-09-28T05:22:13.974Z,75.30
2022-09-28T05:24:41.027Z,74.68
2022-09-28T05:27:07.656Z,76.08
2022-09-28T05:29:34.292Z,75.99
2022-09-28T05:32:01.682Z,74.52
2022-09-28T05:34:28.893Z,74.59
2022-09-28T05:36:55.709Z,75.09
2022-09-28T05:39:22.333Z,75.09
2022-09-28T05:41:49.440Z,75.01
2022-09-28T05:44:16.177Z,75.99
2022-09-28T05:46:42.773Z,74.88
2022-09-28T05:49:09.351Z,74.29
2022-09-28T05:51:35.901Z,74.08
2022-09-28T05:54:06.023Z,74.75
2022-09-28T05:56:33.371Z,74.30
2022-09-28T05:58:59.909Z,73.94
2022-09-28T06:01:26.640Z,74.29
2022-09-28T06:03:53.234Z,75.26
2022-09-28T06:06:19.776Z,74.10
2022-09-28T06:08:48.409Z,73.89
2022-09-28T06:11:15.024Z,74.05
2022-09-28T06:13:41.631Z,75.08
2022-09-28T06:16:08.589Z,75.19
2022-09-28T06:18:35.443Z,75.05
2022-09-28T06:21:02.826Z,74.13
2022-09-28T06:23:29.367Z,74.47
2022-09-28T06:25:55.892Z,74.26
2022-09-28T06:28:22.508Z,73.61
2022-09-28T06:30:49.136Z,73.94
2022-09-28T06:33:16.349Z,75.53
2022-09-28T06:35:43.145Z,74.23
2022-09-28T06:38:09.991Z,73.77
2022-09-28T06:40:36.698Z,74.73
2022-09-28T06:43:10.681Z,75.06
2022-09-28T06:45:38.225Z,74.39
2022-09-28T06:48:05.658Z,74.33
2022-09-28T06:50:37.495Z,74.45
2022-09-28T06:53:06.807Z,74.25
2022-09-28T06:55:33.780Z,74.18
2022-09-28T06:58:03.731Z,75.21
2022-09-28T07:00:34.051Z,74.01
2022-09-28T07:03:03.172Z,75.06
2022-09-28T07:05:30.964Z,74.57
2022-09-28T07:07:57.715Z,74.79
2022-09-28T07:10:27.913Z,73.76
2022-09-28T07:12:55.335Z,74.27
2022-09-28T07:15:22.055Z,74.00
2022-09-28T07:17:59.789Z,73.94
2022-09-28T07:20:30.166Z,74.59
2022-09-28T07:23:09.355Z,74.50
2022-09-28T07:25:45.666Z,73.56
2022-09-28T07:28:12.441Z,73.66
2022-09-28T07:30:39.233Z,74.40
2022-09-28T07:33:08.133Z,73.43
2022-09-28T07:35:34.672Z,73.32
2022-09-28T07:38:03.881Z,72.87
2022-09-28T07:40:51.641Z,73.04
2022-09-28T07:43:20.835Z,73.78
2022-09-28T07:45:48.777Z,73.00
2022-09-28T07:48:16.369Z,73.42
2022-09-28T07:50:51.667Z,73.33
2022-09-28T07:53:20.226Z,73.29
2022-09-28T07:55:51.844Z,72.77
2022-09-28T07:58:19.450Z,72.76
2022-09-28T08:00:48.209Z,72.63
2022-09-28T08:03:17.767Z,73.58
2022-09-28T08:05:44.476Z,73.50
2022-09-28T08:08:11.046Z,73.42
2022-09-28T08:10:38.048Z,73.16
2022-09-28T08:13:07.532Z,73.19
2022-09-28T08:15:36.965Z,72.59
2022-09-28T08:18:04.795Z,73.15
2022-09-28T08:20:52.282Z,73.56
2022-09-28T08:23:19.985Z,72.53
2022-09-28T08:25:49.147Z,71.07
2022-09-28T08:28:18.209Z,67.81
2022-09-28T08:30:45.938Z,66.12
2022-09-28T08:33:13.797Z,63.27
2022-09-28T08:35:42.079Z,61.82
2022-09-28T08:38:09.279Z,59.84
2022-09-28T08:40:44.915Z,58.24
2022-09-28T08:43:51.248Z,57.05
2022-09-28T08:46:25.025Z,55.90
2022-09-28T08:51:42.319Z,53.09
2022-09-28T08:54:31.969Z,51.09
2022-09-28T08:57:05.656Z,51.04
2022-09-28T08:59:51.381Z,50.15
2022-09-28T09:02:39.741Z,49.19
2022-09-28T09:05:14.757Z,47.93
2022-09-28T09:10:46.355Z,44.99
2022-09-28T09:18:42.432Z,45.01
2022-09-28T09:26:39.726Z,42.31
2022-09-28T09:48:45.205Z,39.99
2022-09-28T09:51:20.837Z,40.35
2022-09-28T09:54:01.863Z,38.76
2022-09-28T09:56:38.537Z,38.99
2022-09-28T09:59:12.225Z,39.33
2022-09-28T10:01:41.448Z,39.41
2022-09-28T10:04:19.954Z,39.06
2022-09-28T10:06:49.802Z,39.13
2022-09-28T10:09:23.622Z,39.13
2022-09-28T10:11:51.950Z,40.05
2022-09-28T10:14:22.185Z,39.77
2022-09-28T10:16:51.776Z,39.73
2022-09-28T10:19:21.455Z,39.91
2022-09-28T10:21:51.930Z,40.60
2022-09-28T10:24:27.309Z,40.80
2022-09-28T10:26:55.518Z,41.63
2022-09-28T10:29:25.967Z,42.00
2022-09-28T10:31:54.393Z,42.93
2022-09-28T10:34:30.346Z,44.03
2022-09-28T10:37:06.652Z,44.47
2022-09-28T10:42:20.402Z,43.65
2022-09-28T10:44:54.876Z,44.55
2022-09-28T10:47:24.138Z,44.96
2022-09-28T10:49:54.081Z,45.41
2022-09-28T10:52:31.860Z,46.05
2022-09-28T10:54:58.529Z,46.97
2022-09-28T10:57:41.029Z,47.05
2022-09-28T11:00:39.317Z,47.55
2022-09-28T11:03:06.762Z,47.70
2022-09-28T11:05:33.634Z,47.54
2022-09-28T11:08:05.642Z,48.34
2022-09-28T11:10:33.229Z,48.49
2022-09-28T11:13:00.459Z,49.15
2022-09-28T11:15:31.261Z,48.60
2022-09-28T11:18:19.842Z,49.41
2022-09-28T11:20:46.580Z,49.10
2022-09-28T11:23:31.198Z,49.59
2022-09-28T11:26:02.290Z,49.70
2022-09-28T11:28:32.798Z,49.43
2022-09-28T11:31:00.227Z,50.32
2022-09-28T11:53:25.012Z,47.72
2022-09-28T11:58:49.539Z,48.31
2022-09-28T12:04:03.808Z,48.66
2022-09-28T12:06:38.266Z,49.10
2022-09-28T12:09:14.741Z,49.27
2022-09-28T12:11:45.587Z,49.13
2022-09-28T12:14:25.139Z,49.04
2022-09-28T12:17:20.287Z,48.87
2022-09-28T12:19:55.410Z,49.49
2022-09-28T12:25:13.481Z,49.70
2022-09-28T12:28:06.699Z,49.52
2022-09-28T12:30:40.599Z,49.36
2022-09-28T12:33:13.167Z,50.00
2022-09-28T12:53:19.389Z,49.22
2022-09-28T12:56:04.058Z,48.78
2022-09-28T13:06:47.224Z,48.44
2022-09-28T13:12:14.061Z,48.19
2022-09-28T13:17:54.625Z,48.98
2022-09-28T13:25:42.436Z,48.47
2022-09-28T13:28:15.559Z,49.37
2022-09-28T13:30:45.301Z,48.91
2022-09-28T13:33:35.929Z,48.82
2022-09-28T13:36:23.624Z,48.33
2022-09-28T13:38:50.160Z,48.12
2022-09-28T13:41:20.135Z,48.72
2022-09-28T13:49:45.567Z,48.38
2022-09-28T13:52:16.859Z,47.85
2022-09-28T13:57:31.495Z,47.91
2022-09-28T14:00:10.666Z,47.59
2022-09-28T14:16:48.291Z,47.89
2022-09-28T14:19:26.670Z,47.29
2022-09-28T14:32:58.320Z,47.25
2022-09-28T14:35:31.443Z,47.26
2022-09-28T14:38:23.428Z,47.64
2022-09-28T14:41:11.334Z,47.79
2022-09-28T14:46:37.853Z,47.05
2022-09-28T14:54:21.095Z,46.80
2022-09-28T14:59:43.515Z,46.51
2022-09-28T15:04:52.458Z,46.34
2022-09-28T15:07:23.252Z,46.21
2022-09-28T15:09:52.173Z,46.08
2022-09-28T15:12:23.964Z,46.29
2022-09-28T15:14:56.267Z,45.89
2022-09-28T15:17:27.164Z,47.03
2022-09-28T15:20:22.081Z,46.86
2022-09-28T15:22:50.914Z,46.63
2022-09-28T15:25:22.009Z,47.48
2022-09-28T15:27:54.783Z,46.83
2022-09-28T15:30:32.082Z,47.27
2022-09-28T15:33:20.324Z,47.03
2022-09-28T15:35:54.469Z,46.76
2022-09-28T15:38:21.255Z,46.87
2022-09-28T15:40:48.511Z,47.04
2022-09-28T15:43:33.250Z,47.17
2022-09-28T15:46:13.490Z,47.13
2022-09-28T15:48:52.004Z,46.60
2022-09-28T15:51:21.437Z,46.72
2022-09-28T15:57:00.037Z,46.95
2022-09-28T16:07:27.552Z,46.92
2022-09-28T16:15:28.862Z,47.88
2022-09-28T16:18:01.494Z,47.82
2022-09-28T16:36:39.894Z,48.74
2022-09-28T16:39:06.540Z,48.54
2022-09-28T16:41:33.053Z,48.32
2022-09-28T16:44:02.240Z,48.88
2022-09-28T16:46:36.344Z,48.78
2022-09-28T16:49:05.412Z,49.40
2022-09-28T16:51:32.969Z,48.71
2022-09-28T16:54:33.829Z,48.63
2022-09-28T16:57:01.211Z,48.54
2022-09-28T16:59:28.689Z,48.28
2022-09-28T17:01:56.704Z,48.45
2022-09-28T17:04:25.480Z,49.24
2022-09-28T17:06:54.238Z,48.71
2022-09-28T17:09:22.291Z,49.30
2022-09-28T17:11:56.139Z,49.28
2022-09-28T17:14:23.670Z,49.73
2022-09-28T17:17:13.738Z,49.67
2022-09-28T17:19:40.381Z,50.34
2022-09-28T17:22:08.104Z,49.67
2022-09-28T17:24:35.191Z,50.23
2022-09-28T17:27:03.302Z,49.89
2022-09-28T17:29:30.347Z,50.26
2022-09-28T17:31:56.874Z,50.37
2022-09-28T17:34:23.950Z,51.03
2022-09-28T17:36:50.522Z,50.38
2022-09-28T17:39:19.281Z,50.60
2022-09-28T17:41:46.091Z,50.39
2022-09-28T17:44:16.278Z,51.79
2022-09-28T17:46:47.420Z,51.11
2022-09-28T17:49:14.732Z,51.15
2022-09-28T17:51:41.338Z,51.30
2022-09-28T17:54:08.701Z,52.00
2022-09-28T17:56:36.179Z,51.58
2022-09-28T17:59:06.280Z,52.49
2022-09-28T18:01:35.012Z,51.74
2022-09-28T18:04:04.144Z,51.55
2022-09-28T18:06:33.565Z,51.84
2022-09-28T18:09:00.677Z,52.35
2022-09-28T18:11:28.145Z,51.95
2022-09-28T18:13:54.709Z,52.99
2022-09-28T18:16:22.764Z,52.98
2022-09-28T18:18:49.335Z,53.06
2022-09-28T18:21:16.022Z,52.21
2022-09-28T18:23:42.650Z,52.31
2022-09-28T18:26:12.197Z,52.55
2022-09-28T18:28:39.254Z,53.40
2022-09-28T18:31:09.532Z,53.73
2022-09-28T18:33:36.662Z,52.87
2022-09-28T18:36:04.783Z,53.13
2022-09-28T18:38:31.368Z,53.81
2022-09-28T18:40:57.955Z,53.68
2022-09-28T18:43:24.504Z,54.15
2022-09-28T18:45:51.024Z,54.18
2022-09-28T18:48:17.615Z,53.24
2022-09-28T18:50:44.156Z,53.65
2022-09-28T18:53:11.995Z,53.64
2022-09-28T18:55:41.043Z,54.08
2022-09-28T18:58:10.415Z,54.86
2022-09-28T19:00:40.438Z,54.26
2022-09-28T19:03:08.156Z,54.59
2022-09-28T19:05:35.133Z,54.96
2022-09-28T19:08:02.289Z,55.35
2022-09-28T19:10:28.916Z,54.91
2022-09-28T19:12:55.438Z,54.19
2022-09-28T19:15:22.828Z,55.42
2022-09-28T19:17:50.365Z,55.12
2022-09-28T19:20:17.481Z,55.51
2022-09-28T19:22:44.464Z,54.98
2022-09-28T19:25:11.618Z,55.20
2022-09-28T19:27:38.144Z,55.58
2022-09-28T19:30:05.238Z,55.99
2022-09-28T19:32:31.754Z,55.85
2022-09-28T19:34:58.608Z,55.33
2022-09-28T19:37:25.126Z,56.17
2022-09-28T19:39:51.724Z,56.13
2022-09-28T19:42:18.266Z,55.47
2022-09-28T19:44:46.498Z,56.28
2022-09-28T19:47:13.382Z,56.07
2022-09-28T19:49:40.699Z,56.14
2022-09-28T19:52:16.513Z,56.66
2022-09-28T19:54:45.884Z,56.96
2022-09-28T19:57:14.529Z,56.20
2022-09-28T19:59:41.285Z,57.13
2022-09-28T20:02:10.414Z,56.50
2022-09-28T20:04:36.979Z,56.97
2022-09-28T20:07:04.339Z,57.45
2022-09-28T20:09:31.941Z,57.27
2022-09-28T20:11:58.483Z,57.30
2022-09-28T20:14:26.015Z,57.29
2022-09-28T20:16:57.246Z,57.33
2022-09-28T20:19:23.850Z,57.70
2022-09-28T20:21:50.884Z,57.46
2022-09-28T20:24:17.724Z,58.28
2022-09-28T20:26:46.063Z,58.44
2022-09-28T20:29:13.192Z,58.34
2022-09-28T20:31:40.344Z,58.88
2022-09-28T20:34:07.289Z,59.29
2022-09-28T20:36:34.062Z,59.39
2022-09-28T20:39:02.857Z,58.89
2022-09-28T20:41:34.752Z,59.45
2022-09-28T20:44:05.093Z,59.42
2022-09-28T20:46:33.021Z,59.24
2022-09-28T20:48:59.909Z,59.21
2022-09-28T20:51:26.521Z,60.14
2022-09-28T20:53:55.202Z,59.77
2022-09-28T20:56:26.922Z,60.02
2022-09-28T20:58:54.482Z,59.62
2022-09-28T21:03:58.726Z,59.56
2022-09-28T21:06:28.147Z,60.02
2022-09-28T21:08:54.833Z,59.89
2022-09-28T21:11:23.439Z,60.33
2022-09-28T21:13:55.131Z,60.21
2022-09-28T21:16:21.671Z,60.18
2022-09-28T21:18:48.755Z,59.86
2022-09-28T21:21:17.327Z,60.06
2022-09-28T21:23:44.996Z,60.21
2022-09-28T21:26:15.936Z,60.23
2022-09-28T21:28:44.687Z,60.29
2022-09-28T21:31:12.076Z,60.40
2022-09-28T21:33:38.652Z,60.75
2022-09-28T21:36:07.175Z,60.58
2022-09-28T21:38:34.740Z,60.60
2022-09-28T21:41:01.521Z,60.78
2022-09-28T21:43:30.257Z,60.41
2022-09-28T21:45:58.217Z,60.83
2022-09-28T21:48:26.898Z,60.56
2022-09-28T21:50:57.007Z,61.14
2022-09-28T21:53:24.683Z,61.27
2022-09-28T21:55:53.103Z,60.86
2022-09-28T21:58:23.272Z,60.87
2022-09-28T22:00:58.174Z,60.88
2022-09-28T22:03:25.823Z,60.70
2022-09-28T22:05:52.474Z,60.85
2022-09-28T22:08:19.868Z,60.93
2022-09-28T22:10:57.254Z,60.79
2022-09-28T22:13:23.768Z,60.97
2022-09-28T22:15:54.171Z,61.15
2022-09-28T22:18:20.844Z,61.10
2022-09-28T22:20:47.472Z,61.32
2022-09-28T22:23:14.042Z,61.45
2022-09-28T22:25:40.643Z,61.46
2022-09-28T22:28:07.192Z,61.05
2022-09-28T22:30:34.620Z,61.22
2022-09-28T22:33:02.467Z,61.86
2022-09-28T22:35:29.017Z,61.30
2022-09-28T22:37:55.547Z,61.46
2022-09-28T22:40:22.749Z,61.61
2022-09-28T22:42:49.583Z,61.92
2022-09-28T22:45:16.125Z,61.29
2022-09-28T22:47:42.681Z,61.82
2022-09-28T22:50:09.370Z,62.44
2022-09-28T22:52:35.893Z,62.40
2022-09-28T22:55:02.404Z,62.40
2022-09-28T22:57:29.540Z,62.44
2022-09-28T22:59:56.036Z,61.96
2022-09-28T23:02:22.812Z,62.39
2022-09-28T23:04:49.548Z,62.39
2022-09-28T23:07:16.073Z,62.55
2022-09-28T23:09:42.593Z,61.79
2022-09-28T23:12:09.143Z,62.89
2022-09-28T23:14:35.666Z,62.59
2022-09-28T23:17:02.150Z,62.86
2022-09-28T23:19:28.674Z,62.77
2022-09-28T23:21:55.253Z,62.92
2022-09-28T23:24:21.778Z,62.60
2022-09-28T23:26:48.340Z,62.46
2022-09-28T23:29:14.886Z,63.00
2022-09-28T23:31:41.512Z,62.90
2022-09-28T23:34:10.232Z,63.21
2022-09-28T23:36:36.742Z,63.01
2022-09-28T23:39:03.618Z,62.96
2022-09-28T23:41:30.377Z,62.50
2022-09-28T23:43:57.054Z,63.30
2022-09-28T23:46:24.385Z,63.44
2022-09-28T23:48:51.248Z,63.03
2022-09-28T23:51:18.139Z,63.41
2022-09-28T23:53:45.241Z,62.70
2022-09-28T23:56:12.662Z,63.35
2022-09-28T23:58:39.194Z,63.44
